sensor_id;sensor_type;location;lat;lon;timestamp;pressure;altitude;pressure_sealevel;temperature;humidity
84884;BME280;75145;49.188;8.122;2024-01-10T00:01:27;100932.44;;;-4.68;63.09
84884;BME280;75145;49.188;8.122;2024-01-10T00:03:55;100931.59;;;-4.64;63.16
84884;BME280;75145;49.188;8.122;2024-01-10T00:06:20;100935.03;;;-4.65;63.19
84884;BME280;75145;49.188;8.122;2024-01-10T00:08:46;100931.59;;;-4.64;63.07
84884;BME280;75145;49.188;8.122;2024-01-10T00:11:11;100927.28;;;-4.61;63.07
84884;BME280;75145;49.188;8.122;2024-01-10T00:13:37;100927.28;;;-4.59;63.15
84884;BME280;75145;49.188;8.122;2024-01-10T00:16:05;100929.84;;;-4.58;62.72
84884;BME280;75145;49.188;8.122;2024-01-10T00:18:30;100921.28;;;-4.55;62.60
84884;BME280;75145;49.188;8.122;2024-01-10T00:20:56;100916.09;;;-4.54;62.38
84884;BME280;75145;49.188;8.122;2024-01-10T00:23:22;100925.56;;;-4.53;62.94
84884;BME280;75145;49.188;8.122;2024-01-10T00:25:47;100923.81;;;-4.46;62.27
84884;BME280;75145;49.188;8.122;2024-01-10T00:28:13;100918.66;;;-4.35;61.75
84884;BME280;75145;49.188;8.122;2024-01-10T00:30:39;100917.81;;;-4.39;61.76
84884;BME280;75145;49.188;8.122;2024-01-10T00:33:05;100921.25;;;-4.40;61.59
84884;BME280;75145;49.188;8.122;2024-01-10T00:35:31;100921.25;;;-4.37;61.20
84884;BME280;75145;49.188;8.122;2024-01-10T00:37:56;100916.09;;;-4.37;61.52
84884;BME280;75145;49.188;8.122;2024-01-10T00:40:23;100916.06;;;-4.34;61.35
84884;BME280;75145;49.188;8.122;2024-01-10T00:42:48;100911.78;;;-4.39;61.59
84884;BME280;75145;49.188;8.122;2024-01-10T00:45:13;100916.94;;;-4.36;61.29
84884;BME280;75145;49.188;8.122;2024-01-10T00:47:39;100912.66;;;-4.39;61.31
84884;BME280;75145;49.188;8.122;2024-01-10T00:50:05;100924.69;;;-4.26;61.20
84884;BME280;75145;49.188;8.122;2024-01-10T00:52:30;100910.06;;;-4.30;60.46
84884;BME280;75145;49.188;8.122;2024-01-10T00:54:56;100910.06;;;-4.27;60.61
84884;BME280;75145;49.188;8.122;2024-01-10T00:57:21;100914.38;;;-4.30;61.01
84884;BME280;75145;49.188;8.122;2024-01-10T00:59:46;100913.50;;;-4.26;60.97
84884;BME280;75145;49.188;8.122;2024-01-10T01:02:12;100918.66;;;-4.25;60.81
84884;BME280;75145;49.188;8.122;2024-01-10T01:04:37;100914.34;;;-4.23;60.27
84884;BME280;75145;49.188;8.122;2024-01-10T01:07:02;100922.94;;;-4.16;60.62
84884;BME280;75145;49.188;8.122;2024-01-10T01:09:28;100897.16;;;-4.27;60.33
84884;BME280;75145;49.188;8.122;2024-01-10T01:11:53;100906.59;;;-4.23;60.33
84884;BME280;75145;49.188;8.122;2024-01-10T01:14:18;100890.25;;;-4.28;60.30
84884;BME280;75145;49.188;8.122;2024-01-10T01:16:44;100909.16;;;-4.20;60.43
84884;BME280;75145;49.188;8.122;2024-01-10T01:19:09;100914.31;;;-4.10;60.25
84884;BME280;75145;49.188;8.122;2024-01-10T01:21:34;100917.75;;;-4.08;60.44
84884;BME280;75145;49.188;8.122;2024-01-10T01:24:00;100916.88;;;-4.07;60.06
84884;BME280;75145;49.188;8.122;2024-01-10T01:26:25;100916.91;;;-4.10;60.12
84884;BME280;75145;49.188;8.122;2024-01-10T01:28:50;100910.88;;;-4.12;59.84
84884;BME280;75145;49.188;8.122;2024-01-10T01:31:16;100921.22;;;-4.06;60.04
84884;BME280;75145;49.188;8.122;2024-01-10T01:33:41;100921.22;;;-4.12;59.74
84884;BME280;75145;49.188;8.122;2024-01-10T01:36:06;100916.91;;;-4.10;59.97
84884;BME280;75145;49.188;8.122;2024-01-10T01:38:32;100918.63;;;-4.14;59.70
84884;BME280;75145;49.188;8.122;2024-01-10T01:40:57;100919.50;;;-4.20;60.28
84884;BME280;75145;49.188;8.122;2024-01-10T01:43:24;100896.25;;;-4.21;60.47
84884;BME280;75145;49.188;8.122;2024-01-10T01:45:55;100913.47;;;-4.23;60.21
84884;BME280;75145;49.188;8.122;2024-01-10T01:48:21;100905.72;;;-4.16;60.42
84884;BME280;75145;49.188;8.122;2024-01-10T01:50:50;100904.00;;;-4.17;59.83
84884;BME280;75145;49.188;8.122;2024-01-10T01:53:16;100895.41;;;-4.19;60.20
84884;BME280;75145;49.188;8.122;2024-01-10T01:55:44;100893.69;;;-4.23;60.39
84884;BME280;75145;49.188;8.122;2024-01-10T01:58:10;100891.97;;;-4.22;59.56
84884;BME280;75145;49.188;8.122;2024-01-10T02:00:37;100882.53;;;-4.31;60.05
84884;BME280;75145;49.188;8.122;2024-01-10T02:03:03;100891.94;;;-4.21;60.12
84884;BME280;75145;49.188;8.122;2024-01-10T02:05:30;100891.09;;;-4.20;59.67
84884;BME280;75145;49.188;8.122;2024-01-10T02:07:55;100884.22;;;-4.19;59.46
84884;BME280;75145;49.188;8.122;2024-01-10T02:10:20;100884.22;;;-4.15;59.28
84884;BME280;75145;49.188;8.122;2024-01-10T02:12:46;100881.63;;;-4.11;59.24
84884;BME280;75145;49.188;8.122;2024-01-10T02:15:13;100881.63;;;-4.15;59.39
84884;BME280;75145;49.188;8.122;2024-01-10T02:17:39;100885.91;;;-4.10;59.49
84884;BME280;75145;49.188;8.122;2024-01-10T02:20:11;100885.03;;;-4.09;59.35
84884;BME280;75145;49.188;8.122;2024-01-10T02:22:37;100887.66;;;-4.06;59.13
84884;BME280;75145;49.188;8.122;2024-01-10T02:25:12;100878.13;;;-4.00;58.74
84884;BME280;75145;49.188;8.122;2024-01-10T02:27:39;100874.69;;;-4.00;58.66
84884;BME280;75145;49.188;8.122;2024-01-10T02:30:06;100866.09;;;-4.07;58.79
84884;BME280;75145;49.188;8.122;2024-01-10T02:32:32;100878.16;;;-4.04;59.15
84884;BME280;75145;49.188;8.122;2024-01-10T02:34:58;100875.56;;;-4.03;59.17
84884;BME280;75145;49.188;8.122;2024-01-10T02:37:24;100880.75;;;-4.06;59.00
84884;BME280;75145;49.188;8.122;2024-01-10T02:39:49;100865.25;;;-4.09;58.49
84884;BME280;75145;49.188;8.122;2024-01-10T02:42:15;100878.16;;;-4.10;58.56
84884;BME280;75145;49.188;8.122;2024-01-10T02:44:40;100870.44;;;-4.06;58.74
84884;BME280;75145;49.188;8.122;2024-01-10T02:47:06;100871.28;;;-4.05;58.65
84884;BME280;75145;49.188;8.122;2024-01-10T02:49:41;100870.41;;;-4.04;58.27
84884;BME280;75145;49.188;8.122;2024-01-10T02:52:06;100871.25;;;-4.02;58.50
84884;BME280;75145;49.188;8.122;2024-01-10T02:54:31;100862.66;;;-4.07;58.35
84884;BME280;75145;49.188;8.122;2024-01-10T02:56:57;100866.09;;;-4.02;58.51
84884;BME280;75145;49.188;8.122;2024-01-10T02:59:22;100860.09;;;-4.04;58.11
84884;BME280;75145;49.188;8.122;2024-01-10T03:01:47;100863.53;;;-4.04;58.48
84884;BME280;75145;49.188;8.122;2024-01-10T03:04:13;100855.75;;;-4.07;58.54
84884;BME280;75145;49.188;8.122;2024-01-10T03:06:38;100861.78;;;-3.99;58.26
84884;BME280;75145;49.188;8.122;2024-01-10T03:09:03;100866.09;;;-4.02;58.15
84884;BME280;75145;49.188;8.122;2024-01-10T03:11:29;100859.22;;;-4.03;58.42
84884;BME280;75145;49.188;8.122;2024-01-10T03:14:04;100865.22;;;-4.07;58.63
84884;BME280;75145;49.188;8.122;2024-01-10T03:16:32;100855.75;;;-4.02;58.14
84884;BME280;75145;49.188;8.122;2024-01-10T03:18:57;100854.91;;;-4.04;58.49
84884;BME280;75145;49.188;8.122;2024-01-10T03:21:23;100858.34;;;-4.02;58.31
84884;BME280;75145;49.188;8.122;2024-01-10T03:23:56;100858.31;;;-3.96;58.09
84884;BME280;75145;49.188;8.122;2024-01-10T03:26:22;100851.47;;;-4.08;59.11
84884;BME280;75145;49.188;8.122;2024-01-10T03:28:47;100853.19;;;-4.08;58.65
84884;BME280;75145;49.188;8.122;2024-01-10T03:31:13;100860.94;;;-4.02;58.33
84884;BME280;75145;49.188;8.122;2024-01-10T03:33:38;100848.88;;;-4.09;58.88
84884;BME280;75145;49.188;8.122;2024-01-10T03:36:05;100848.06;;;-4.18;58.64
84884;BME280;75145;49.188;8.122;2024-01-10T03:38:30;100861.81;;;-4.11;59.76
84884;BME280;75145;49.188;8.122;2024-01-10T03:40:56;100854.09;;;-4.16;59.06
84884;BME280;75145;49.188;8.122;2024-01-10T03:43:21;100861.81;;;-4.14;59.14
84884;BME280;75145;49.188;8.122;2024-01-10T03:45:46;100854.09;;;-4.19;59.38
84884;BME280;75145;49.188;8.122;2024-01-10T03:48:12;100852.38;;;-4.26;59.58
84884;BME280;75145;49.188;8.122;2024-01-10T03:50:37;100856.69;;;-4.25;59.22
84884;BME280;75145;49.188;8.122;2024-01-10T03:53:03;100855.81;;;-4.24;59.62
84884;BME280;75145;49.188;8.122;2024-01-10T03:55:28;100860.13;;;-4.26;59.84
84884;BME280;75145;49.188;8.122;2024-01-10T03:57:55;100851.53;;;-4.35;59.67
84884;BME280;75145;49.188;8.122;2024-01-10T04:00:21;100858.41;;;-4.33;60.28
84884;BME280;75145;49.188;8.122;2024-01-10T04:03:28;100859.28;;;-4.28;59.79
84884;BME280;75145;49.188;8.122;2024-01-10T04:05:53;100860.13;;;-4.33;59.74
84884;BME280;75145;49.188;8.122;2024-01-10T04:08:19;100865.31;;;-4.36;59.87
84884;BME280;75145;49.188;8.122;2024-01-10T04:10:44;100864.47;;;-4.49;60.41
84884;BME280;75145;49.188;8.122;2024-01-10T04:13:09;100864.50;;;-4.52;60.90
84884;BME280;75145;49.188;8.122;2024-01-10T04:15:35;100842.13;;;-4.59;60.43
84884;BME280;75145;49.188;8.122;2024-01-10T04:18:00;100850.72;;;-4.51;60.51
84884;BME280;75145;49.188;8.122;2024-01-10T04:20:25;100864.47;;;-4.43;59.79
84884;BME280;75145;49.188;8.122;2024-01-10T04:22:51;100874.81;;;-4.43;60.60
84884;BME280;75145;49.188;8.122;2024-01-10T04:25:16;100869.63;;;-4.40;60.60
84884;BME280;75145;49.188;8.122;2024-01-10T04:27:41;100872.19;;;-4.46;60.86
84884;BME280;75145;49.188;8.122;2024-01-10T04:30:07;100871.38;;;-4.53;61.00
84884;BME280;75145;49.188;8.122;2024-01-10T04:32:33;100873.97;;;-4.57;61.21
84884;BME280;75145;49.188;8.122;2024-01-10T04:34:58;100876.53;;;-4.51;61.37
84884;BME280;75145;49.188;8.122;2024-01-10T04:37:24;100864.47;;;-4.58;60.88
84884;BME280;75145;49.188;8.122;2024-01-10T04:39:51;100873.09;;;-4.59;61.31
84884;BME280;75145;49.188;8.122;2024-01-10T04:42:16;100873.94;;;-4.71;62.34
84884;BME280;75145;49.188;8.122;2024-01-10T04:44:41;100856.75;;;-4.87;62.25
84884;BME280;75145;49.188;8.122;2024-01-10T04:47:07;100861.06;;;-4.77;62.76
84884;BME280;75145;49.188;8.122;2024-01-10T04:49:32;100855.91;;;-4.85;62.32
84884;BME280;75145;49.188;8.122;2024-01-10T04:51:58;100869.69;;;-4.83;62.68
84884;BME280;75145;49.188;8.122;2024-01-10T04:54:23;100866.22;;;-4.82;62.65
84884;BME280;75145;49.188;8.122;2024-01-10T04:56:48;100864.50;;;-4.89;63.47
84884;BME280;75145;49.188;8.122;2024-01-10T04:59:14;100867.94;;;-4.90;63.19
84884;BME280;75145;49.188;8.122;2024-01-10T05:01:39;100859.34;;;-4.98;63.33
84884;BME280;75145;49.188;8.122;2024-01-10T05:04:05;100873.09;;;-5.00;63.45
84884;BME280;75145;49.188;8.122;2024-01-10T05:06:30;100863.63;;;-5.03;63.88
84884;BME280;75145;49.188;8.122;2024-01-10T05:08:56;100864.50;;;-5.04;64.13
84884;BME280;75145;49.188;8.122;2024-01-10T05:11:23;100864.50;;;-5.01;63.95
84884;BME280;75145;49.188;8.122;2024-01-10T05:13:49;100864.50;;;-5.07;64.28
84884;BME280;75145;49.188;8.122;2024-01-10T05:16:15;100870.50;;;-5.04;63.71
84884;BME280;75145;49.188;8.122;2024-01-10T05:18:40;100861.06;;;-5.00;63.65
84884;BME280;75145;49.188;8.122;2024-01-10T05:21:05;100871.38;;;-5.01;64.17
84884;BME280;75145;49.188;8.122;2024-01-10T05:23:31;100864.50;;;-4.92;63.60
84884;BME280;75145;49.188;8.122;2024-01-10T05:25:56;100859.34;;;-5.01;64.02
84884;BME280;75145;49.188;8.122;2024-01-10T05:28:21;100860.19;;;-5.04;63.93
84884;BME280;75145;49.188;8.122;2024-01-10T05:30:47;100869.66;;;-5.01;63.82
84884;BME280;75145;49.188;8.122;2024-01-10T05:33:12;100869.66;;;-5.01;63.83
84884;BME280;75145;49.188;8.122;2024-01-10T05:35:41;100868.78;;;-5.00;64.00
84884;BME280;75145;49.188;8.122;2024-01-10T05:38:07;100871.38;;;-5.03;64.36
84884;BME280;75145;49.188;8.122;2024-01-10T05:40:32;100869.66;;;-5.03;64.10
84884;BME280;75145;49.188;8.122;2024-01-10T05:42:58;100869.66;;;-5.07;64.22
84884;BME280;75145;49.188;8.122;2024-01-10T05:45:27;100869.66;;;-5.01;63.95
84884;BME280;75145;49.188;8.122;2024-01-10T05:47:53;100862.78;;;-5.02;64.45
84884;BME280;75145;49.188;8.122;2024-01-10T05:50:19;100871.38;;;-4.91;65.23
84884;BME280;75145;49.188;8.122;2024-01-10T05:52:45;100872.22;;;-4.84;65.32
84884;BME280;75145;49.188;8.122;2024-01-10T05:55:10;100867.09;;;-4.83;64.43
84884;BME280;75145;49.188;8.122;2024-01-10T05:57:38;100867.06;;;-4.87;64.23
84884;BME280;75145;49.188;8.122;2024-01-10T06:00:05;100879.97;;;-4.89;64.56
84884;BME280;75145;49.188;8.122;2024-01-10T06:02:38;100867.94;;;-4.90;64.60
84884;BME280;75145;49.188;8.122;2024-01-10T06:05:10;100863.66;;;-4.82;64.93
84884;BME280;75145;49.188;8.122;2024-01-10T06:07:39;100864.50;;;-4.92;64.87
84884;BME280;75145;49.188;8.122;2024-01-10T06:10:06;100864.50;;;-4.92;64.82
84884;BME280;75145;49.188;8.122;2024-01-10T06:12:32;100861.91;;;-4.99;65.09
84884;BME280;75145;49.188;8.122;2024-01-10T06:14:57;100864.50;;;-4.95;64.97
84884;BME280;75145;49.188;8.122;2024-01-10T06:17:23;100865.38;;;-4.94;65.12
84884;BME280;75145;49.188;8.122;2024-01-10T06:19:49;100862.78;;;-4.68;64.45
84884;BME280;75145;49.188;8.122;2024-01-10T06:22:14;100855.00;;;-4.41;63.42
84884;BME280;75145;49.188;8.122;2024-01-10T06:24:40;100855.84;;;-4.30;62.96
84884;BME280;75145;49.188;8.122;2024-01-10T06:27:08;100857.56;;;-4.38;63.39
84884;BME280;75145;49.188;8.122;2024-01-10T06:29:33;100868.75;;;-4.27;62.89
84884;BME280;75145;49.188;8.122;2024-01-10T06:31:59;100866.13;;;-4.21;63.02
84884;BME280;75145;49.188;8.122;2024-01-10T06:34:26;100861.84;;;-4.25;63.05
84884;BME280;75145;49.188;8.122;2024-01-10T06:36:51;100857.53;;;-4.21;62.94
84884;BME280;75145;49.188;8.122;2024-01-10T06:39:17;100862.75;;;-4.32;62.80
84884;BME280;75145;49.188;8.122;2024-01-10T06:41:47;100870.44;;;-4.24;63.03
84884;BME280;75145;49.188;8.122;2024-01-10T06:44:13;100864.44;;;-4.28;63.12
84884;BME280;75145;49.188;8.122;2024-01-10T06:46:39;100869.59;;;-4.22;62.80
84884;BME280;75145;49.188;8.122;2024-01-10T06:49:04;100862.69;;;-4.23;63.34
84884;BME280;75145;49.188;8.122;2024-01-10T06:51:29;100871.28;;;-4.21;62.89
84884;BME280;75145;49.188;8.122;2024-01-10T06:53:55;100872.16;;;-4.14;62.84
84884;BME280;75145;49.188;8.122;2024-01-10T06:56:27;100883.31;;;-4.10;62.79
84884;BME280;75145;49.188;8.122;2024-01-10T06:58:53;100874.72;;;-4.09;62.51
84884;BME280;75145;49.188;8.122;2024-01-10T07:01:19;100862.34;;;-3.37;76.41
84884;BME280;75145;49.188;8.122;2024-01-10T07:03:47;100867.47;;;-3.28;60.98
84884;BME280;75145;49.188;8.122;2024-01-10T07:06:12;100876.19;;;-3.41;60.46
84884;BME280;75145;49.188;8.122;2024-01-10T07:08:40;100882.22;;;-3.47;60.49
84884;BME280;75145;49.188;8.122;2024-01-10T07:11:05;100885.72;;;-3.56;60.79
84884;BME280;75145;49.188;8.122;2024-01-10T07:13:30;100886.59;;;-3.61;60.98
84884;BME280;75145;49.188;8.122;2024-01-10T07:15:56;100890.06;;;-3.64;61.67
84884;BME280;75145;49.188;8.122;2024-01-10T07:18:22;100898.66;;;-3.59;61.22
84884;BME280;75145;49.188;8.122;2024-01-10T07:20:47;100902.97;;;-3.61;61.38
84884;BME280;75145;49.188;8.122;2024-01-10T07:23:12;100893.53;;;-3.68;60.88
84884;BME280;75145;49.188;8.122;2024-01-10T07:25:38;100888.31;;;-3.62;61.31
84884;BME280;75145;49.188;8.122;2024-01-10T07:28:03;100897.78;;;-3.53;60.96
84884;BME280;75145;49.188;8.122;2024-01-10T07:30:29;100890.84;;;-3.46;60.44
84884;BME280;75145;49.188;8.122;2024-01-10T07:32:58;100887.38;;;-3.47;60.15
84884;BME280;75145;49.188;8.122;2024-01-10T07:35:23;100896.84;;;-3.44;61.23
84884;BME280;75145;49.188;8.122;2024-01-10T07:37:48;100894.31;;;-3.50;61.23
84884;BME280;75145;49.188;8.122;2024-01-10T07:40:14;100897.72;;;-3.39;60.96
84884;BME280;75145;49.188;8.122;2024-01-10T07:42:39;100913.22;;;-3.38;60.61
84884;BME280;75145;49.188;8.122;2024-01-10T07:45:05;100889.97;;;-3.45;60.26
84884;BME280;75145;49.188;8.122;2024-01-10T07:47:31;100909.75;;;-3.35;60.58
84884;BME280;75145;49.188;8.122;2024-01-10T07:49:59;100905.47;;;-3.45;60.20
84884;BME280;75145;49.188;8.122;2024-01-10T07:52:24;100910.66;;;-3.42;60.61
84884;BME280;75145;49.188;8.122;2024-01-10T07:54:49;100914.06;;;-3.37;60.89
84884;BME280;75145;49.188;8.122;2024-01-10T07:57:15;100911.47;;;-3.36;60.70
84884;BME280;75145;49.188;8.122;2024-01-10T07:59:43;100928.69;;;-3.29;60.93
84884;BME280;75145;49.188;8.122;2024-01-10T08:02:09;100926.00;;;-3.12;60.38
84884;BME280;75145;49.188;8.122;2024-01-10T08:04:35;100930.34;;;-3.17;60.28
84884;BME280;75145;49.188;8.122;2024-01-10T08:07:00;100932.00;;;-3.07;60.17
84884;BME280;75145;49.188;8.122;2024-01-10T08:09:26;100935.44;;;-3.03;59.50
84884;BME280;75145;49.188;8.122;2024-01-10T08:11:51;100934.50;;;-2.91;58.89
84884;BME280;75145;49.188;8.122;2024-01-10T08:14:16;100939.59;;;-2.82;59.26
84884;BME280;75145;49.188;8.122;2024-01-10T08:16:42;100930.03;;;-2.70;58.23
84884;BME280;75145;49.188;8.122;2024-01-10T08:19:08;100929.13;;;-2.64;58.42
84884;BME280;75145;49.188;8.122;2024-01-10T08:21:33;100926.31;;;-2.38;57.96
84884;BME280;75145;49.188;8.122;2024-01-10T08:23:59;100928.69;;;-2.17;57.24
84884;BME280;75145;49.188;8.122;2024-01-10T08:26:25;100925.13;;;-2.05;56.44
84884;BME280;75145;49.188;8.122;2024-01-10T08:28:52;100917.34;;;-2.05;55.68
84884;BME280;75145;49.188;8.122;2024-01-10T08:31:17;100923.41;;;-2.03;56.13
84884;BME280;75145;49.188;8.122;2024-01-10T08:33:42;100933.03;;;-2.17;56.55
84884;BME280;75145;49.188;8.122;2024-01-10T08:36:07;100933.94;;;-2.21;55.97
84884;BME280;75145;49.188;8.122;2024-01-10T08:38:35;100926.38;;;-2.41;56.14
84884;BME280;75145;49.188;8.122;2024-01-10T08:41:00;100930.56;;;-2.32;56.35
84884;BME280;75145;49.188;8.122;2024-01-10T08:43:26;100937.31;;;-2.16;56.14
84884;BME280;75145;49.188;8.122;2024-01-10T08:45:51;100938.97;;;-2.03;55.98
84884;BME280;75145;49.188;8.122;2024-01-10T08:48:16;100935.19;;;-1.74;54.70
84884;BME280;75145;49.188;8.122;2024-01-10T08:50:42;100941.47;;;-1.22;53.04
84884;BME280;75145;49.188;8.122;2024-01-10T08:53:08;100937.03;;;-0.56;51.55
84884;BME280;75145;49.188;8.122;2024-01-10T08:55:33;100933.00;;;0.26;49.17
84884;BME280;75145;49.188;8.122;2024-01-10T08:57:59;100930.66;;;0.97;47.52
84884;BME280;75145;49.188;8.122;2024-01-10T09:00:24;100929.03;;;1.64;44.56
84884;BME280;75145;49.188;8.122;2024-01-10T09:02:50;100931.72;;;2.28;43.90
84884;BME280;75145;49.188;8.122;2024-01-10T09:05:15;100930.72;;;2.94;41.64
84884;BME280;75145;49.188;8.122;2024-01-10T09:07:41;100931.63;;;3.21;40.74
84884;BME280;75145;49.188;8.122;2024-01-10T09:10:07;100920.06;;;3.54;39.26
84884;BME280;75145;49.188;8.122;2024-01-10T09:12:33;100926.97;;;3.83;38.74
84884;BME280;75145;49.188;8.122;2024-01-10T09:14:59;100931.00;;;3.92;38.77
84884;BME280;75145;49.188;8.122;2024-01-10T09:17:24;100928.28;;;4.45;38.29
84884;BME280;75145;49.188;8.122;2024-01-10T09:19:49;100930.75;;;4.95;36.80
84884;BME280;75145;49.188;8.122;2024-01-10T09:22:15;100927.13;;;5.43;35.54
84884;BME280;75145;49.188;8.122;2024-01-10T09:24:41;100918.69;;;5.56;35.40
84884;BME280;75145;49.188;8.122;2024-01-10T09:27:06;100920.41;;;5.57;35.13
84884;BME280;75145;49.188;8.122;2024-01-10T09:29:35;100928.97;;;5.41;35.44
84884;BME280;75145;49.188;8.122;2024-01-10T09:32:00;100918.25;;;5.47;35.30
84884;BME280;75145;49.188;8.122;2024-01-10T09:34:26;100933.28;;;6.06;34.71
84884;BME280;75145;49.188;8.122;2024-01-10T09:36:51;100929.03;;;5.81;34.37
84884;BME280;75145;49.188;8.122;2024-01-10T09:39:17;100930.59;;;6.07;34.12
84884;BME280;75145;49.188;8.122;2024-01-10T09:41:47;100932.69;;;6.40;33.71
84884;BME280;75145;49.188;8.122;2024-01-10T09:44:14;100936.63;;;6.69;32.44
84884;BME280;75145;49.188;8.122;2024-01-10T09:46:40;100929.91;;;7.01;31.81
84884;BME280;75145;49.188;8.122;2024-01-10T09:49:09;100937.75;;;6.63;32.39
84884;BME280;75145;49.188;8.122;2024-01-10T09:51:34;100936.56;;;7.08;32.60
84884;BME280;75145;49.188;8.122;2024-01-10T09:54:02;100933.94;;;7.08;32.03
84884;BME280;75145;49.188;8.122;2024-01-10T09:56:28;100933.59;;;6.78;32.83
84884;BME280;75145;49.188;8.122;2024-01-10T09:58:55;100940.41;;;6.82;32.57
84884;BME280;75145;49.188;8.122;2024-01-10T10:01:23;100937.56;;;6.68;32.01
84884;BME280;75145;49.188;8.122;2024-01-10T10:03:49;100934.66;;;6.74;32.65
84884;BME280;75145;49.188;8.122;2024-01-10T10:06:16;100937.22;;;7.13;32.23
84884;BME280;75145;49.188;8.122;2024-01-10T10:08:41;100939.38;;;7.41;31.15
84884;BME280;75145;49.188;8.122;2024-01-10T10:11:11;100927.47;;;6.77;32.27
84884;BME280;75145;49.188;8.122;2024-01-10T10:13:38;100907.56;;;6.72;32.47
84884;BME280;75145;49.188;8.122;2024-01-10T10:16:07;100935.56;;;7.11;32.51
84884;BME280;75145;49.188;8.122;2024-01-10T10:18:34;100933.03;;;6.90;31.81
84884;BME280;75145;49.188;8.122;2024-01-10T10:23:33;100932.44;;;7.02;32.09
84884;BME280;75145;49.188;8.122;2024-01-10T10:25:58;100935.00;;;7.04;32.62
84884;BME280;75145;49.188;8.122;2024-01-10T10:28:28;100934.94;;;7.24;32.01
84884;BME280;75145;49.188;8.122;2024-01-10T10:30:55;100936.00;;;7.74;30.99
84884;BME280;75145;49.188;8.122;2024-01-10T10:33:21;100930.72;;;7.39;31.36
84884;BME280;75145;49.188;8.122;2024-01-10T10:35:49;100934.81;;;7.45;31.42
84884;BME280;75145;49.188;8.122;2024-01-10T10:38:15;100925.50;;;7.91;32.16
84884;BME280;75145;49.188;8.122;2024-01-10T10:40:41;100931.97;;;8.18;29.98
84884;BME280;75145;49.188;8.122;2024-01-10T10:43:12;100923.06;;;8.21;30.51
84884;BME280;75145;49.188;8.122;2024-01-10T10:45:40;100938.63;;;7.56;31.45
84884;BME280;75145;49.188;8.122;2024-01-10T10:48:08;100938.44;;;7.78;31.39
84884;BME280;75145;49.188;8.122;2024-01-10T10:50:35;100934.28;;;7.38;32.30
84884;BME280;75145;49.188;8.122;2024-01-10T10:53:03;100933.38;;;7.74;31.99
84884;BME280;75145;49.188;8.122;2024-01-10T10:55:29;100927.94;;;7.59;31.68
84884;BME280;75145;49.188;8.122;2024-01-10T10:57:55;100929.69;;;6.87;32.61
84884;BME280;75145;49.188;8.122;2024-01-10T11:00:21;100932.84;;;6.56;33.71
84884;BME280;75145;49.188;8.122;2024-01-10T11:02:53;100927.66;;;6.15;34.50
84884;BME280;75145;49.188;8.122;2024-01-10T11:05:20;100925.56;;;6.23;34.54
84884;BME280;75145;49.188;8.122;2024-01-10T11:07:46;100920.06;;;6.48;34.33
84884;BME280;75145;49.188;8.122;2024-01-10T11:10:28;100925.59;;;6.98;33.02
84884;BME280;75145;49.188;8.122;2024-01-10T11:23:56;100922.50;;;8.32;31.41
84884;BME280;75145;49.188;8.122;2024-01-10T11:26:26;100913.44;;;8.37;31.21
84884;BME280;75145;49.188;8.122;2024-01-10T11:28:51;100927.63;;;9.17;30.43
84884;BME280;75145;49.188;8.122;2024-01-10T11:31:27;100920.25;;;9.37;29.96
84884;BME280;75145;49.188;8.122;2024-01-10T11:33:53;100923.50;;;9.11;29.86
84884;BME280;75145;49.188;8.122;2024-01-10T11:36:20;100931.81;;;9.51;29.40
84884;BME280;75145;49.188;8.122;2024-01-10T11:41:31;100925.03;;;9.47;28.95
84884;BME280;75145;49.188;8.122;2024-01-10T11:46:48;100924.56;;;9.70;28.62
84884;BME280;75145;49.188;8.122;2024-01-10T11:49:16;100916.50;;;10.01;28.62
84884;BME280;75145;49.188;8.122;2024-01-10T11:51:43;100904.72;;;9.93;29.67
84884;BME280;75145;49.188;8.122;2024-01-10T11:54:08;100902.31;;;9.88;28.95
84884;BME280;75145;49.188;8.122;2024-01-10T11:56:43;100894.38;;;9.74;29.41
84884;BME280;75145;49.188;8.122;2024-01-10T11:59:11;100900.97;;;9.51;29.67
84884;BME280;75145;49.188;8.122;2024-01-10T12:01:37;100898.94;;;9.56;29.59
84884;BME280;75145;49.188;8.122;2024-01-10T12:04:04;100903.94;;;9.61;29.97
84884;BME280;75145;49.188;8.122;2024-01-10T12:06:32;100894.16;;;9.93;28.61
84884;BME280;75145;49.188;8.122;2024-01-10T12:08:58;100891.59;;;9.91;28.44
84884;BME280;75145;49.188;8.122;2024-01-10T12:11:24;100897.91;;;10.03;28.16
84884;BME280;75145;49.188;8.122;2024-01-10T12:13:50;100894.63;;;10.14;28.93
84884;BME280;75145;49.188;8.122;2024-01-10T12:16:15;100900.31;;;10.08;28.80
84884;BME280;75145;49.188;8.122;2024-01-10T12:18:43;100896.34;;;10.15;28.15
84884;BME280;75145;49.188;8.122;2024-01-10T12:21:09;100892.81;;;10.00;28.60
84884;BME280;75145;49.188;8.122;2024-01-10T12:23:36;100891.16;;;9.69;28.93
84884;BME280;75145;49.188;8.122;2024-01-10T12:26:02;100891.97;;;9.39;30.18
84884;BME280;75145;49.188;8.122;2024-01-10T12:28:30;100885.34;;;9.32;29.18
84884;BME280;75145;49.188;8.122;2024-01-10T12:30:55;100891.66;;;9.90;28.75
84884;BME280;75145;49.188;8.122;2024-01-10T12:33:23;100895.34;;;9.87;28.57
84884;BME280;75145;49.188;8.122;2024-01-10T12:36:08;100889.19;;;10.17;29.04
84884;BME280;75145;49.188;8.122;2024-01-10T12:38:39;100881.22;;;10.02;28.75
84884;BME280;75145;49.188;8.122;2024-01-10T12:41:05;100884.50;;;10.22;28.13
84884;BME280;75145;49.188;8.122;2024-01-10T12:43:34;100883.53;;;10.23;27.31
84884;BME280;75145;49.188;8.122;2024-01-10T12:46:12;100879.78;;;9.83;28.79
84884;BME280;75145;49.188;8.122;2024-01-10T12:48:39;100881.63;;;9.21;29.16
84884;BME280;75145;49.188;8.122;2024-01-10T12:51:09;100872.72;;;9.37;30.23
84884;BME280;75145;49.188;8.122;2024-01-10T12:53:36;100871.09;;;9.05;29.62
84884;BME280;75145;49.188;8.122;2024-01-10T12:56:02;100870.22;;;8.73;30.41
84884;BME280;75145;49.188;8.122;2024-01-10T12:58:28;100868.34;;;8.59;30.75
84884;BME280;75145;49.188;8.122;2024-01-10T13:00:54;100880.50;;;8.29;31.23
84884;BME280;75145;49.188;8.122;2024-01-10T13:03:19;100883.88;;;7.97;30.76
84884;BME280;75145;49.188;8.122;2024-01-10T13:05:48;100879.47;;;8.31;30.70
84884;BME280;75145;49.188;8.122;2024-01-10T13:08:14;100865.19;;;9.00;30.59